createdAt,value
2022-12-06T00:01:30.150Z,80.99
2022-12-06T00:04:00.710Z,81.02
2022-12-06T00:06:31.424Z,81.12
2022-12-06T00:09:00.191Z,81.20
2022-12-06T00:11:33.261Z,81.27
2022-12-06T00:14:04.232Z,81.43
2022-12-06T00:16:32.982Z,81.49
2022-12-06T00:19:01.626Z,81.51
2022-12-06T00:21:36.918Z,81.60
2022-12-06T00:24:13.011Z,81.63
2022-12-06T00:26:43.075Z,81.55
2022-12-06T00:29:20.101Z,81.47
2022-12-06T00:31:48.145Z,81.47
2022-12-06T00:34:15.724Z,81.43
2022-12-06T00:36:43.568Z,81.43
2022-12-06T00:39:14.422Z,81.26
2022-12-06T00:41:42.851Z,81.19
2022-12-06T00:44:11.230Z,81.10
2022-12-06T00:46:39.436Z,81.03
2022-12-06T00:49:08.372Z,80.86
2022-12-06T00:51:37.185Z,80.78
2022-12-06T00:54:06.165Z,80.85
2022-12-06T00:56:35.915Z,80.79
2022-12-06T00:59:04.862Z,80.92
2022-12-06T01:01:34.733Z,80.92
2022-12-06T01:04:05.149Z,81.07
2022-12-06T01:06:34.704Z,81.03
2022-12-06T01:09:05.691Z,81.06
2022-12-06T01:11:33.410Z,80.95
2022-12-06T01:14:01.424Z,80.92
2022-12-06T01:16:30.596Z,80.93
2022-12-06T01:19:01.716Z,80.90
2022-12-06T01:21:29.714Z,80.89
2022-12-06T01:23:57.483Z,80.89
2022-12-06T01:26:27.374Z,80.73
2022-12-06T01:28:55.006Z,80.67
2022-12-06T01:31:22.702Z,80.68
2022-12-06T01:33:50.716Z,80.74
2022-12-06T01:36:24.244Z,80.65
2022-12-06T01:38:57.100Z,80.61
2022-12-06T01:41:26.485Z,80.55
2022-12-06T01:43:55.683Z,80.48
2022-12-06T01:46:33.881Z,80.50
2022-12-06T01:49:13.332Z,80.57
2022-12-06T01:51:45.768Z,80.62
2022-12-06T01:54:15.968Z,80.69
2022-12-06T01:56:44.097Z,80.67
2022-12-06T01:59:12.568Z,80.72
2022-12-06T02:01:40.743Z,80.75
2022-12-06T02:04:09.113Z,80.77
2022-12-06T02:06:37.598Z,80.89
2022-12-06T02:09:08.044Z,80.82
2022-12-06T02:11:36.224Z,80.95
2022-12-06T02:14:09.077Z,81.00
2022-12-06T02:17:01.491Z,80.93
2022-12-06T02:19:57.585Z,80.82
2022-12-06T02:22:36.875Z,81.01
2022-12-06T02:25:22.114Z,81.07
2022-12-06T02:28:11.520Z,81.05
2022-12-06T02:30:59.575Z,80.97
2022-12-06T02:33:58.009Z,81.19
2022-12-06T02:36:44.057Z,81.20
2022-12-06T02:39:18.778Z,81.34
2022-12-06T02:41:54.775Z,81.32
2022-12-06T02:44:32.274Z,81.31
2022-12-06T02:47:02.294Z,81.41
2022-12-06T02:49:33.463Z,81.43
2022-12-06T02:52:01.836Z,81.59
2022-12-06T02:54:29.958Z,81.85
2022-12-06T02:56:57.574Z,81.84
2022-12-06T02:59:25.155Z,81.84
2022-12-06T03:01:57.257Z,81.90
2022-12-06T03:05:17.674Z,82.16
2022-12-06T03:07:47.001Z,82.30
2022-12-06T03:10:20.422Z,82.46
2022-12-06T03:13:16.061Z,82.32
2022-12-06T03:15:57.004Z,82.60
2022-12-06T03:18:41.631Z,82.59
2022-12-06T03:21:15.000Z,82.60
2022-12-06T03:23:48.069Z,82.68
2022-12-06T03:26:20.879Z,82.73
2022-12-06T03:28:52.962Z,82.85
2022-12-06T03:31:20.871Z,83.06
2022-12-06T03:34:23.616Z,83.42
2022-12-06T03:36:53.209Z,83.74
2022-12-06T03:39:33.747Z,83.61
2022-12-06T03:42:01.724Z,83.47
2022-12-06T03:44:29.770Z,83.36
2022-12-06T03:47:16.440Z,83.43
2022-12-06T03:50:08.729Z,83.58
2022-12-06T03:52:38.136Z,83.72
2022-12-06T03:55:06.340Z,83.49
2022-12-06T03:57:35.309Z,83.45
2022-12-06T04:00:03.612Z,83.54
2022-12-06T04:02:31.211Z,83.57
2022-12-06T04:04:58.869Z,83.52
2022-12-06T04:07:26.489Z,83.50
2022-12-06T04:09:54.175Z,83.54
2022-12-06T04:12:23.620Z,83.52
2022-12-06T04:14:51.190Z,83.55
2022-12-06T04:17:18.775Z,83.53
2022-12-06T04:19:51.794Z,83.67
2022-12-06T04:22:19.708Z,83.59
2022-12-06T04:24:47.384Z,83.67
2022-12-06T04:27:14.989Z,83.71
2022-12-06T04:29:42.550Z,83.86
2022-12-06T04:32:10.117Z,83.78
2022-12-06T04:34:37.697Z,83.84
2022-12-06T04:37:05.656Z,83.94
2022-12-06T04:39:33.508Z,83.85
2022-12-06T04:42:01.174Z,83.95
2022-12-06T04:44:28.845Z,84.52
2022-12-06T04:46:56.463Z,84.82
2022-12-06T04:49:24.072Z,85.14
2022-12-06T04:51:51.925Z,85.18
2022-12-06T04:54:21.256Z,85.42
2022-12-06T04:56:48.965Z,85.26
2022-12-06T04:59:16.897Z,85.25
2022-12-06T05:01:44.696Z,85.29
2022-12-06T05:04:12.396Z,85.20
2022-12-06T05:06:40.087Z,85.26
2022-12-06T05:09:07.750Z,85.24
2022-12-06T05:11:35.370Z,85.33
2022-12-06T05:14:03.227Z,85.40
2022-12-06T05:16:30.979Z,85.29
2022-12-06T05:18:58.697Z,85.22
2022-12-06T05:21:26.347Z,85.27
2022-12-06T05:23:55.034Z,85.34
2022-12-06T05:26:27.934Z,85.36
2022-12-06T05:28:56.808Z,85.29
2022-12-06T05:31:25.569Z,85.00
2022-12-06T05:33:53.373Z,85.01
2022-12-06T05:36:24.252Z,84.95
2022-12-06T05:38:52.847Z,84.76
2022-12-06T05:41:22.286Z,84.68
2022-12-06T05:43:50.042Z,84.66
2022-12-06T05:46:18.283Z,84.73
2022-12-06T05:48:46.298Z,84.87
2022-12-06T05:51:14.023Z,84.86
2022-12-06T05:53:41.577Z,84.78
2022-12-06T05:56:11.691Z,84.89
2022-12-06T05:58:39.823Z,84.82
2022-12-06T06:01:08.180Z,84.64
2022-12-06T06:03:36.530Z,84.67
2022-12-06T06:06:05.136Z,84.72
2022-12-06T06:08:33.124Z,84.43
2022-12-06T06:11:01.411Z,84.01
2022-12-06T06:13:29.007Z,83.91
2022-12-06T06:15:56.654Z,84.02
2022-12-06T06:18:24.390Z,84.16
2022-12-06T06:20:54.972Z,84.10
2022-12-06T06:23:22.750Z,84.22
2022-12-06T06:25:50.461Z,84.23
2022-12-06T06:28:18.923Z,84.17
2022-12-06T06:30:47.023Z,84.04
2022-12-06T06:33:15.523Z,84.07
2022-12-06T06:35:43.448Z,83.95
2022-12-06T06:38:11.085Z,83.88
2022-12-06T06:40:38.670Z,83.86
2022-12-06T06:43:06.266Z,83.89
2022-12-06T06:45:34.098Z,83.80
2022-12-06T06:48:01.747Z,83.71
2022-12-06T06:50:29.338Z,83.97
2022-12-06T06:52:56.984Z,84.11
2022-12-06T06:55:24.668Z,84.11
2022-12-06T06:57:52.269Z,84.03
2022-12-06T07:00:20.161Z,84.31
2022-12-06T07:02:47.827Z,84.29
2022-12-06T07:05:15.544Z,84.13
2022-12-06T07:07:43.200Z,84.03
2022-12-06T07:10:11.183Z,83.81
2022-12-06T07:12:39.212Z,83.64
2022-12-06T07:15:07.478Z,83.74
2022-12-06T07:17:35.074Z,83.70
2022-12-06T07:20:03.376Z,83.82
2022-12-06T07:22:31.187Z,83.75
2022-12-06T07:24:58.805Z,83.73
2022-12-06T07:27:26.774Z,83.79
2022-12-06T07:29:54.360Z,84.05
2022-12-06T07:32:21.917Z,84.02
2022-12-06T07:34:49.650Z,84.00
2022-12-06T07:37:17.287Z,84.09
2022-12-06T07:39:44.938Z,84.21
2022-12-06T07:42:12.652Z,84.36
2022-12-06T07:44:40.310Z,84.53
2022-12-06T07:47:07.908Z,84.59
2022-12-06T07:49:35.665Z,84.35
2022-12-06T07:52:03.359Z,84.39
2022-12-06T07:54:31.016Z,84.51
2022-12-06T07:56:58.633Z,84.61
2022-12-06T07:59:27.016Z,84.50
2022-12-06T08:01:55.009Z,84.72
2022-12-06T08:04:22.831Z,84.70
2022-12-06T08:06:50.494Z,84.23
2022-12-06T08:09:18.200Z,84.13
2022-12-06T08:11:46.048Z,84.23
2022-12-06T08:14:13.833Z,84.34
2022-12-06T08:16:42.086Z,84.04
2022-12-06T08:19:12.421Z,84.18
2022-12-06T08:21:40.141Z,84.09
2022-12-06T08:24:07.799Z,83.72
2022-12-06T08:26:35.402Z,83.50
2022-12-06T08:29:04.121Z,83.66
2022-12-06T08:31:32.379Z,83.81
2022-12-06T08:34:00.644Z,83.76
2022-12-06T08:36:28.385Z,83.76
2022-12-06T08:38:58.461Z,83.89
2022-12-06T08:41:26.437Z,84.11
2022-12-06T08:43:54.872Z,84.16
2022-12-06T08:46:22.705Z,84.14
2022-12-06T08:48:50.506Z,84.02
2022-12-06T08:51:18.464Z,83.96
2022-12-06T08:53:46.160Z,83.93
2022-12-06T08:56:13.934Z,83.91
2022-12-06T08:58:41.490Z,84.20
2022-12-06T09:01:15.087Z,84.11
2022-12-06T09:03:42.785Z,84.09
2022-12-06T09:06:10.947Z,84.20
2022-12-06T09:08:38.921Z,84.29
2022-12-06T09:11:07.907Z,84.29
2022-12-06T09:13:37.000Z,84.12
2022-12-06T09:16:09.937Z,84.01
2022-12-06T09:18:38.116Z,84.03
2022-12-06T09:21:08.549Z,84.06
2022-12-06T09:23:37.289Z,83.95
2022-12-06T09:26:06.691Z,83.84
2022-12-06T09:28:36.796Z,84.09
2022-12-06T09:31:05.897Z,83.72
2022-12-06T09:33:33.922Z,83.53
2022-12-06T09:36:06.156Z,83.46
2022-12-06T09:38:37.571Z,82.81
2022-12-06T09:41:17.364Z,80.11
2022-12-06T09:44:10.365Z,77.74
2022-12-06T09:47:10.190Z,75.39
2022-12-06T09:49:50.045Z,72.19
2022-12-06T09:52:23.537Z,71.22
2022-12-06T09:55:00.257Z,71.07
2022-12-06T09:57:58.627Z,69.43
2022-12-06T10:00:31.184Z,70.49
2022-12-06T10:03:25.157Z,71.35
2022-12-06T10:06:00.309Z,71.94
2022-12-06T10:08:46.321Z,70.85
2022-12-06T10:11:16.700Z,72.69
2022-12-06T10:13:44.222Z,71.92
2022-12-06T10:16:44.103Z,72.44
2022-12-06T10:19:54.856Z,72.01
2022-12-06T10:22:41.456Z,70.55
2022-12-06T10:25:24.450Z,66.14
2022-12-06T10:27:54.936Z,60.63
2022-12-06T10:30:22.560Z,59.64
2022-12-06T10:33:13.418Z,55.98
2022-12-06T10:35:48.844Z,57.16
2022-12-06T10:38:30.348Z,54.75
2022-12-06T10:41:03.816Z,51.45
2022-12-06T10:44:01.663Z,49.05
2022-12-06T10:46:42.049Z,45.69
2022-12-06T10:49:12.622Z,44.41
2022-12-06T10:52:01.604Z,43.35
2022-12-06T10:54:58.423Z,43.92
2022-12-06T10:57:50.589Z,44.08
2022-12-06T11:00:22.514Z,40.08
2022-12-06T11:03:01.617Z,40.74
2022-12-06T11:05:38.048Z,40.41
2022-12-06T11:08:21.536Z,40.33
2022-12-06T11:10:50.519Z,42.78
2022-12-06T11:13:40.947Z,43.83
2022-12-06T11:16:22.106Z,43.64
2022-12-06T11:18:51.136Z,47.10
2022-12-06T11:21:43.156Z,49.29
2022-12-06T11:24:21.312Z,47.31
2022-12-06T11:27:02.084Z,47.20
2022-12-06T11:29:29.661Z,47.20
2022-12-06T11:32:03.476Z,44.28
2022-12-06T11:34:33.927Z,44.51
2022-12-06T11:37:02.878Z,45.70
2022-12-06T11:39:31.689Z,39.89
2022-12-06T11:42:03.221Z,37.89
2022-12-06T11:44:47.904Z,37.00
2022-12-06T11:47:20.859Z,35.29
2022-12-06T11:49:51.424Z,33.26
2022-12-06T11:52:41.157Z,32.35
2022-12-06T11:55:31.873Z,33.42
2022-12-06T11:58:06.760Z,32.29
2022-12-06T12:00:34.808Z,31.85
2022-12-06T12:03:02.737Z,32.97
2022-12-06T12:05:33.004Z,33.87
2022-12-06T12:08:06.231Z,37.20
2022-12-06T12:10:37.545Z,39.31
2022-12-06T12:13:11.017Z,42.49
2022-12-06T12:15:47.585Z,45.32
2022-12-06T12:18:37.730Z,47.21
2022-12-06T12:21:07.049Z,49.56
2022-12-06T12:23:38.425Z,50.74
2022-12-06T12:26:16.685Z,52.66
2022-12-06T12:29:01.579Z,54.10
2022-12-06T12:31:29.248Z,55.87
2022-12-06T12:34:14.724Z,56.66
2022-12-06T12:36:48.418Z,57.49
2022-12-06T12:39:31.393Z,58.03
2022-12-06T12:41:59.395Z,58.69
2022-12-06T12:44:37.992Z,59.55
2022-12-06T12:47:17.139Z,60.24
2022-12-06T12:50:00.732Z,60.34
2022-12-06T12:52:37.813Z,60.80
2022-12-06T12:55:16.620Z,61.02
2022-12-06T12:57:49.988Z,61.55
2022-12-06T13:00:19.157Z,61.64
2022-12-06T13:03:00.415Z,61.65
2022-12-06T13:05:33.868Z,62.04
2022-12-06T13:08:06.802Z,62.00
2022-12-06T13:10:38.069Z,62.18
2022-12-06T13:13:14.606Z,61.69
2022-12-06T13:15:46.251Z,61.81
2022-12-06T13:18:19.629Z,62.11
2022-12-06T13:20:49.500Z,62.47
2022-12-06T13:23:20.604Z,62.50
2022-12-06T13:26:09.238Z,62.54
2022-12-06T13:28:43.333Z,62.82
2022-12-06T13:31:16.614Z,63.29
2022-12-06T13:33:51.172Z,63.22
2022-12-06T13:36:20.618Z,63.26
2022-12-06T13:38:48.329Z,62.80
2022-12-06T13:41:35.634Z,62.96
2022-12-06T13:44:03.226Z,63.16
2022-12-06T13:46:32.117Z,63.49
2022-12-06T13:48:59.759Z,63.34
2022-12-06T13:51:33.428Z,63.44
2022-12-06T13:54:04.008Z,63.63
2022-12-06T13:56:34.470Z,63.78
2022-12-06T13:59:25.028Z,63.79
2022-12-06T14:01:53.858Z,64.11
2022-12-06T14:04:24.532Z,64.04
2022-12-06T14:06:53.751Z,64.27
2022-12-06T14:09:22.419Z,64.33
2022-12-06T14:11:50.679Z,64.67
2022-12-06T14:14:20.813Z,64.95
2022-12-06T14:16:51.920Z,65.02
2022-12-06T14:19:21.978Z,65.20
2022-12-06T14:22:02.179Z,65.08
2022-12-06T14:24:35.828Z,65.01
2022-12-06T14:27:10.084Z,65.17
2022-12-06T14:29:38.764Z,65.28
2022-12-06T14:32:06.830Z,65.44
2022-12-06T14:34:36.362Z,65.75
2022-12-06T14:37:21.621Z,65.55
2022-12-06T14:39:53.067Z,65.79
2022-12-06T14:42:20.675Z,66.01
2022-12-06T14:44:51.164Z,66.11
2022-12-06T14:47:21.365Z,66.02
2022-12-06T14:49:54.612Z,66.51
2022-12-06T14:52:30.368Z,66.09
2022-12-06T14:55:16.212Z,66.45
2022-12-06T14:57:49.894Z,66.24
2022-12-06T15:00:26.996Z,66.21
2022-12-06T15:03:21.828Z,66.38
2022-12-06T15:05:52.815Z,66.63
2022-12-06T15:08:26.301Z,66.46
2022-12-06T15:10:57.315Z,66.62
2022-12-06T15:13:24.929Z,66.63
2022-12-06T15:16:04.106Z,66.77
2022-12-06T15:18:35.573Z,66.82
2022-12-06T15:21:06.677Z,66.65
2022-12-06T15:23:34.304Z,66.47
2022-12-06T15:26:03.863Z,66.51
2022-12-06T15:28:31.607Z,66.87
2022-12-06T15:30:59.288Z,66.96
2022-12-06T15:33:26.952Z,67.00
2022-12-06T15:35:54.638Z,66.89
2022-12-06T15:38:22.212Z,66.69
2022-12-06T15:40:51.817Z,66.40
2022-12-06T15:43:33.920Z,66.13
2022-12-06T15:46:03.603Z,66.21
2022-12-06T15:48:33.291Z,66.64
2022-12-06T15:51:00.990Z,66.18
2022-12-06T15:53:28.965Z,66.12
2022-12-06T15:55:56.664Z,65.84
2022-12-06T15:58:24.417Z,65.94
2022-12-06T16:00:52.133Z,65.99
2022-12-06T16:03:19.808Z,65.89
2022-12-06T16:05:47.434Z,65.93
2022-12-06T16:08:15.055Z,66.00
2022-12-06T16:11:10.702Z,66.14
2022-12-06T16:13:30.347Z,66.08
2022-12-06T16:15:58.000Z,66.11
2022-12-06T16:18:25.729Z,66.50
2022-12-06T16:20:53.390Z,66.36
2022-12-06T16:23:25.537Z,66.37
2022-12-06T16:25:53.497Z,66.51
2022-12-06T16:28:21.559Z,66.40
2022-12-06T16:30:49.178Z,66.34
2022-12-06T16:33:19.675Z,66.18
2022-12-06T16:35:47.652Z,65.65
2022-12-06T16:38:17.701Z,65.57
2022-12-06T16:40:46.235Z,66.21
2022-12-06T16:43:13.819Z,66.43
2022-12-06T16:45:44.154Z,66.49
2022-12-06T16:48:19.658Z,66.17
2022-12-06T16:50:47.660Z,66.30
2022-12-06T16:53:15.320Z,66.06
2022-12-06T16:55:43.967Z,66.22
2022-12-06T16:58:11.695Z,66.25
2022-12-06T17:00:39.564Z,66.43
2022-12-06T17:03:10.239Z,66.50
2022-12-06T17:05:37.968Z,66.38
2022-12-06T17:08:05.708Z,66.37
2022-12-06T17:10:33.361Z,66.39
2022-12-06T17:13:00.955Z,66.33
2022-12-06T17:15:28.742Z,66.31
2022-12-06T17:17:56.409Z,66.31
2022-12-06T17:20:24.095Z,66.43
2022-12-06T17:22:51.711Z,66.57
2022-12-06T17:25:19.466Z,66.87
2022-12-06T17:27:47.121Z,67.05
2022-12-06T17:30:16.274Z,67.28
2022-12-06T17:32:44.997Z,67.64
2022-12-06T17:35:12.982Z,67.93
2022-12-06T17:37:40.594Z,68.44
2022-12-06T17:40:08.827Z,68.56
2022-12-06T17:42:36.415Z,68.65
2022-12-06T17:45:04.875Z,68.47
2022-12-06T17:47:32.842Z,68.63
2022-12-06T17:50:01.004Z,68.62
2022-12-06T17:52:28.997Z,68.90
2022-12-06T17:54:56.661Z,68.98
2022-12-06T17:57:24.308Z,69.03
2022-12-06T17:59:52.401Z,69.29
2022-12-06T18:02:21.239Z,69.49
2022-12-06T18:04:49.262Z,69.64
2022-12-06T18:07:17.588Z,69.71
2022-12-06T18:09:45.785Z,69.73
2022-12-06T18:12:15.373Z,69.72
2022-12-06T18:14:43.989Z,70.36
2022-12-06T18:17:11.828Z,70.37
2022-12-06T18:19:39.482Z,70.45
2022-12-06T18:22:07.095Z,70.51
2022-12-06T18:24:36.230Z,70.62
2022-12-06T18:27:05.855Z,70.96
2022-12-06T18:29:34.505Z,71.05
2022-12-06T18:32:02.522Z,71.26
2022-12-06T18:34:30.488Z,71.34
2022-12-06T18:37:01.705Z,71.25
2022-12-06T18:39:31.304Z,71.64
2022-12-06T18:41:59.423Z,71.77
2022-12-06T18:44:27.032Z,71.79
2022-12-06T18:46:55.988Z,71.98
2022-12-06T18:49:23.614Z,72.32
2022-12-06T18:51:51.245Z,72.35
2022-12-06T18:54:18.959Z,72.68
2022-12-06T18:56:46.611Z,72.69
2022-12-06T18:59:14.408Z,72.92
2022-12-06T19:01:42.259Z,73.10
2022-12-06T19:04:12.084Z,73.13
2022-12-06T19:06:39.842Z,73.13
2022-12-06T19:09:10.827Z,73.44
2022-12-06T19:11:43.544Z,73.47
2022-12-06T19:14:11.203Z,73.25
2022-12-06T19:16:42.189Z,73.38
2022-12-06T19:19:16.615Z,73.28
2022-12-06T19:21:46.217Z,73.42
2022-12-06T19:24:18.912Z,73.48
2022-12-06T19:26:47.372Z,73.48
2022-12-06T19:29:16.339Z,73.53
2022-12-06T19:31:44.192Z,73.87
2022-12-06T19:34:23.862Z,74.15
2022-12-06T19:36:53.453Z,73.98
2022-12-06T19:39:23.585Z,74.49
2022-12-06T19:41:51.832Z,74.49
2022-12-06T19:44:19.449Z,74.75
2022-12-06T19:46:47.574Z,74.66
2022-12-06T19:49:20.334Z,74.87
2022-12-06T19:51:48.838Z,75.17
2022-12-06T19:54:20.222Z,75.13
2022-12-06T19:56:48.907Z,75.19
2022-12-06T19:59:16.551Z,75.16
2022-12-06T20:01:46.219Z,75.30
2022-12-06T20:04:25.214Z,75.35
2022-12-06T20:06:54.004Z,75.27
2022-12-06T20:09:24.591Z,75.41
2022-12-06T20:11:52.906Z,75.45
2022-12-06T20:14:20.578Z,75.38
2022-12-06T20:16:48.923Z,75.45
2022-12-06T20:19:17.746Z,75.58
2022-12-06T20:21:45.778Z,75.52
2022-12-06T20:24:15.922Z,75.97
2022-12-06T20:26:43.498Z,76.04
2022-12-06T20:29:11.320Z,76.18
2022-12-06T20:31:39.128Z,76.20
2022-12-06T20:34:13.084Z,76.21
2022-12-06T20:36:42.515Z,76.02
2022-12-06T20:39:18.338Z,76.34
2022-12-06T20:41:45.943Z,76.26
2022-12-06T20:44:14.358Z,76.20
2022-12-06T20:46:42.030Z,76.06
2022-12-06T20:49:09.959Z,76.18
2022-12-06T20:51:37.672Z,76.06
2022-12-06T20:54:07.039Z,76.02
2022-12-06T20:56:37.551Z,76.03
2022-12-06T20:59:07.384Z,75.89
2022-12-06T21:01:38.797Z,75.97
2022-12-06T21:04:07.532Z,75.98
2022-12-06T21:06:35.112Z,76.11
2022-12-06T21:09:03.576Z,76.17
2022-12-06T21:11:31.213Z,76.16
2022-12-06T21:13:58.893Z,76.11
2022-12-06T21:16:29.727Z,76.26
2022-12-06T21:19:00.564Z,76.21
2022-12-06T21:21:30.845Z,76.09
2022-12-06T21:23:59.760Z,76.15
2022-12-06T21:26:29.150Z,76.30
2022-12-06T21:28:56.781Z,76.20
2022-12-06T21:31:30.171Z,76.33
2022-12-06T21:33:58.332Z,76.41
2022-12-06T21:36:25.992Z,76.58
2022-12-06T21:38:54.187Z,76.83
2022-12-06T21:41:22.020Z,76.81
2022-12-06T21:43:50.053Z,77.06
2022-12-06T21:46:20.601Z,77.10
2022-12-06T21:48:56.307Z,77.39
2022-12-06T21:51:26.624Z,77.40
2022-12-06T21:53:54.813Z,77.34
2022-12-06T21:56:27.600Z,77.55
2022-12-06T21:58:55.750Z,77.47
2022-12-06T22:01:25.607Z,77.19
2022-12-06T22:03:55.423Z,77.26
2022-12-06T22:06:23.120Z,77.44
2022-12-06T22:08:57.288Z,77.33
2022-12-06T22:11:25.183Z,77.46
2022-12-06T22:13:52.810Z,77.32
2022-12-06T22:16:20.462Z,77.43
2022-12-06T22:18:48.092Z,77.46
2022-12-06T22:21:20.548Z,77.49
2022-12-06T22:23:48.713Z,77.54
2022-12-06T22:26:19.030Z,77.60
2022-12-06T22:28:47.304Z,77.52
2022-12-06T22:31:21.498Z,77.43
2022-12-06T22:33:50.355Z,77.53
2022-12-06T22:36:19.622Z,77.61
2022-12-06T22:38:52.241Z,77.63
2022-12-06T22:41:20.788Z,77.83
2022-12-06T22:43:55.193Z,77.99
2022-12-06T22:46:23.635Z,78.04
2022-12-06T22:48:51.886Z,78.16
2022-12-06T22:51:22.528Z,78.18
2022-12-06T22:53:55.659Z,78.17
2022-12-06T22:56:26.672Z,78.16
2022-12-06T22:58:55.580Z,78.27
2022-12-06T23:01:25.969Z,78.37
2022-12-06T23:03:54.955Z,78.33
2022-12-06T23:06:25.005Z,78.51
2022-12-06T23:08:53.725Z,78.42
2022-12-06T23:11:39.131Z,78.74
2022-12-06T23:14:06.710Z,78.91
2022-12-06T23:16:34.859Z,78.95
2022-12-06T23:19:03.659Z,79.02
2022-12-06T23:21:33.665Z,79.03
2022-12-06T23:24:04.518Z,79.02
2022-12-06T23:26:38.375Z,79.06
2022-12-06T23:29:06.680Z,79.15
2022-12-06T23:31:37.280Z,79.10
2022-12-06T23:34:16.774Z,78.78
2022-12-06T23:36:44.707Z,78.98
2022-12-06T23:39:12.471Z,78.86
2022-12-06T23:41:40.213Z,78.90
2022-12-06T23:44:08.118Z,78.82
2022-12-06T23:46:38.495Z,78.74
2022-12-06T23:49:07.727Z,78.84
2022-12-06T23:51:38.202Z,78.83
2022-12-06T23:54:07.661Z,78.93
2022-12-06T23:56:38.331Z,79.13
2022-12-06T23:59:07.664Z,79.35
